sensor_id;sensor_type;location;lat;lon;timestamp;P1;durP1;ratioP1;P2;durP2;ratioP2
41635;SDS011;27623;51.966;4.602;2023-04-03T00:01:42;2.92;;;1.10;;
41635;SDS011;27623;51.966;4.602;2023-04-03T00:04:08;4.90;;;1.40;;
41635;SDS011;27623;51.966;4.602;2023-04-03T00:06:33;3.35;;;1.42;;
41635;SDS011;27623;51.966;4.602;2023-04-03T00:09:02;2.85;;;1.20;;
41635;SDS011;27623;51.966;4.602;2023-04-03T00:11:28;6.07;;;1.50;;
41635;SDS011;27623;51.966;4.602;2023-04-03T00:13:53;2.58;;;1.10;;
41635;SDS011;27623;51.966;4.602;2023-04-03T00:16:18;3.10;;;1.13;;
41635;SDS011;27623;51.966;4.602;2023-04-03T00:18:44;4.90;;;1.08;;
41635;SDS011;27623;51.966;4.602;2023-04-03T00:21:10;4.18;;;1.17;;
41635;SDS011;27623;51.966;4.602;2023-04-03T00:23:37;3.25;;;1.20;;
41635;SDS011;27623;51.966;4.602;2023-04-03T00:26:03;3.35;;;1.48;;
41635;SDS011;27623;51.966;4.602;2023-04-03T00:28:31;4.43;;;1.20;;
41635;SDS011;27623;51.966;4.602;2023-04-03T00:30:56;4.40;;;1.20;;
41635;SDS011;27623;51.966;4.602;2023-04-03T00:33:22;2.40;;;1.00;;
41635;SDS011;27623;51.966;4.602;2023-04-03T00:35:49;2.00;;;0.98;;
41635;SDS011;27623;51.966;4.602;2023-04-03T00:38:15;3.45;;;1.17;;
41635;SDS011;27623;51.966;4.602;2023-04-03T00:40:44;4.93;;;1.13;;
41635;SDS011;27623;51.966;4.602;2023-04-03T00:43:17;5.22;;;1.13;;
41635;SDS011;27623;51.966;4.602;2023-04-03T00:45:51;3.10;;;1.10;;
41635;SDS011;27623;51.966;4.602;2023-04-03T00:48:20;2.78;;;1.10;;
41635;SDS011;27623;51.966;4.602;2023-04-03T00:50:50;4.53;;;0.90;;
41635;SDS011;27623;51.966;4.602;2023-04-03T00:53:18;4.43;;;1.50;;
41635;SDS011;27623;51.966;4.602;2023-04-03T00:55:50;3.15;;;1.30;;
41635;SDS011;27623;51.966;4.602;2023-04-03T00:58:18;4.80;;;1.45;;
41635;SDS011;27623;51.966;4.602;2023-04-03T01:00:46;2.28;;;1.00;;
41635;SDS011;27623;51.966;4.602;2023-04-03T01:03:21;4.07;;;1.70;;
41635;SDS011;27623;51.966;4.602;2023-04-03T01:05:51;3.97;;;1.73;;
41635;SDS011;27623;51.966;4.602;2023-04-03T01:08:16;6.60;;;1.33;;
41635;SDS011;27623;51.966;4.602;2023-04-03T01:10:42;2.83;;;1.20;;
41635;SDS011;27623;51.966;4.602;2023-04-03T01:13:25;5.47;;;1.05;;
41635;SDS011;27623;51.966;4.602;2023-04-03T01:15:55;1.85;;;1.10;;
41635;SDS011;27623;51.966;4.602;2023-04-03T01:18:21;5.55;;;1.40;;
41635;SDS011;27623;51.966;4.602;2023-04-03T01:23:35;2.20;;;1.10;;
41635;SDS011;27623;51.966;4.602;2023-04-03T01:26:03;2.55;;;1.30;;
41635;SDS011;27623;51.966;4.602;2023-04-03T01:28:30;2.90;;;1.10;;
41635;SDS011;27623;51.966;4.602;2023-04-03T01:33:44;3.58;;;1.30;;
41635;SDS011;27623;51.966;4.602;2023-04-03T01:36:10;5.40;;;1.23;;
41635;SDS011;27623;51.966;4.602;2023-04-03T01:38:42;3.17;;;1.15;;
41635;SDS011;27623;51.966;4.602;2023-04-03T01:41:07;3.50;;;1.08;;
41635;SDS011;27623;51.966;4.602;2023-04-03T01:43:32;2.33;;;1.20;;
41635;SDS011;27623;51.966;4.602;2023-04-03T01:45:58;6.10;;;1.40;;
41635;SDS011;27623;51.966;4.602;2023-04-03T01:48:25;4.28;;;1.33;;
41635;SDS011;27623;51.966;4.602;2023-04-03T01:50:51;3.10;;;1.20;;
41635;SDS011;27623;51.966;4.602;2023-04-03T01:53:16;2.25;;;1.10;;
41635;SDS011;27623;51.966;4.602;2023-04-03T01:55:42;3.15;;;1.40;;
41635;SDS011;27623;51.966;4.602;2023-04-03T01:58:07;3.33;;;1.30;;
41635;SDS011;27623;51.966;4.602;2023-04-03T02:00:32;1.80;;;0.98;;
41635;SDS011;27623;51.966;4.602;2023-04-03T02:02:58;2.38;;;0.93;;
41635;SDS011;27623;51.966;4.602;2023-04-03T02:05:23;5.60;;;1.27;;
41635;SDS011;27623;51.966;4.602;2023-04-03T02:07:49;5.95;;;1.42;;
41635;SDS011;27623;51.966;4.602;2023-04-03T02:10:15;3.33;;;1.35;;
41635;SDS011;27623;51.966;4.602;2023-04-03T02:12:40;3.35;;;1.48;;
41635;SDS011;27623;51.966;4.602;2023-04-03T02:15:06;2.55;;;1.27;;
41635;SDS011;27623;51.966;4.602;2023-04-03T02:17:34;3.53;;;1.42;;
41635;SDS011;27623;51.966;4.602;2023-04-03T02:20:02;3.78;;;1.35;;
41635;SDS011;27623;51.966;4.602;2023-04-03T02:22:28;4.35;;;1.17;;
41635;SDS011;27623;51.966;4.602;2023-04-03T02:24:54;4.50;;;1.88;;
41635;SDS011;27623;51.966;4.602;2023-04-03T02:27:19;3.42;;;1.25;;
41635;SDS011;27623;51.966;4.602;2023-04-03T02:29:44;3.05;;;0.95;;
41635;SDS011;27623;51.966;4.602;2023-04-03T02:32:10;2.67;;;1.23;;
41635;SDS011;27623;51.966;4.602;2023-04-03T02:34:35;4.57;;;1.48;;
41635;SDS011;27623;51.966;4.602;2023-04-03T02:37:01;2.50;;;1.10;;
41635;SDS011;27623;51.966;4.602;2023-04-03T02:39:26;2.35;;;1.10;;
41635;SDS011;27623;51.966;4.602;2023-04-03T02:41:52;3.42;;;1.17;;
41635;SDS011;27623;51.966;4.602;2023-04-03T02:44:17;2.03;;;1.00;;
41635;SDS011;27623;51.966;4.602;2023-04-03T02:46:43;1.92;;;0.98;;
41635;SDS011;27623;51.966;4.602;2023-04-03T02:49:09;6.78;;;1.70;;
41635;SDS011;27623;51.966;4.602;2023-04-03T02:51:37;2.42;;;1.27;;
41635;SDS011;27623;51.966;4.602;2023-04-03T02:54:02;2.67;;;1.20;;
41635;SDS011;27623;51.966;4.602;2023-04-03T02:56:27;4.68;;;1.42;;
41635;SDS011;27623;51.966;4.602;2023-04-03T02:58:53;3.45;;;1.10;;
41635;SDS011;27623;51.966;4.602;2023-04-03T03:01:18;3.13;;;1.27;;
41635;SDS011;27623;51.966;4.602;2023-04-03T03:03:44;3.05;;;1.20;;
41635;SDS011;27623;51.966;4.602;2023-04-03T03:06:13;4.00;;;1.17;;
41635;SDS011;27623;51.966;4.602;2023-04-03T03:08:41;3.80;;;1.35;;
41635;SDS011;27623;51.966;4.602;2023-04-03T03:11:07;3.38;;;1.20;;
41635;SDS011;27623;51.966;4.602;2023-04-03T03:13:35;3.05;;;1.60;;
41635;SDS011;27623;51.966;4.602;2023-04-03T03:16:01;3.45;;;1.52;;
41635;SDS011;27623;51.966;4.602;2023-04-03T03:18:27;2.55;;;0.98;;
41635;SDS011;27623;51.966;4.602;2023-04-03T03:20:54;4.07;;;1.30;;
41635;SDS011;27623;51.966;4.602;2023-04-03T03:23:21;2.70;;;1.27;;
41635;SDS011;27623;51.966;4.602;2023-04-03T03:25:48;2.75;;;1.10;;
41635;SDS011;27623;51.966;4.602;2023-04-03T03:28:13;1.55;;;1.08;;
41635;SDS011;27623;51.966;4.602;2023-04-03T03:30:39;3.75;;;1.20;;
41635;SDS011;27623;51.966;4.602;2023-04-03T03:33:04;6.07;;;1.83;;
41635;SDS011;27623;51.966;4.602;2023-04-03T03:35:30;3.88;;;1.58;;
41635;SDS011;27623;51.966;4.602;2023-04-03T03:37:55;3.78;;;1.20;;
41635;SDS011;27623;51.966;4.602;2023-04-03T03:40:20;4.85;;;1.60;;
41635;SDS011;27623;51.966;4.602;2023-04-03T03:42:46;6.35;;;1.33;;
41635;SDS011;27623;51.966;4.602;2023-04-03T03:45:14;6.03;;;1.30;;
41635;SDS011;27623;51.966;4.602;2023-04-03T03:47:40;3.80;;;1.40;;
41635;SDS011;27623;51.966;4.602;2023-04-03T03:50:08;2.95;;;0.88;;
41635;SDS011;27623;51.966;4.602;2023-04-03T03:52:33;5.50;;;1.40;;
41635;SDS011;27623;51.966;4.602;2023-04-03T03:54:59;3.30;;;1.33;;
41635;SDS011;27623;51.966;4.602;2023-04-03T03:57:27;3.05;;;1.20;;
41635;SDS011;27623;51.966;4.602;2023-04-03T03:59:53;3.67;;;1.23;;
41635;SDS011;27623;51.966;4.602;2023-04-03T04:02:19;3.28;;;1.27;;
41635;SDS011;27623;51.966;4.602;2023-04-03T04:04:44;3.67;;;1.40;;
41635;SDS011;27623;51.966;4.602;2023-04-03T04:07:10;3.47;;;1.38;;
41635;SDS011;27623;51.966;4.602;2023-04-03T04:09:36;3.45;;;1.52;;
41635;SDS011;27623;51.966;4.602;2023-04-03T04:12:01;7.03;;;1.40;;
41635;SDS011;27623;51.966;4.602;2023-04-03T04:14:26;4.20;;;1.48;;
41635;SDS011;27623;51.966;4.602;2023-04-03T04:16:52;4.28;;;1.38;;
41635;SDS011;27623;51.966;4.602;2023-04-03T04:19:17;2.75;;;1.20;;
41635;SDS011;27623;51.966;4.602;2023-04-03T04:21:43;4.50;;;1.70;;
41635;SDS011;27623;51.966;4.602;2023-04-03T04:24:08;6.85;;;1.27;;
41635;SDS011;27623;51.966;4.602;2023-04-03T04:26:34;3.83;;;1.60;;
41635;SDS011;27623;51.966;4.602;2023-04-03T04:28:59;4.65;;;1.50;;
41635;SDS011;27623;51.966;4.602;2023-04-03T04:31:25;4.88;;;1.70;;
41635;SDS011;27623;51.966;4.602;2023-04-03T04:33:51;4.82;;;1.67;;
41635;SDS011;27623;51.966;4.602;2023-04-03T04:36:17;5.72;;;1.80;;
41635;SDS011;27623;51.966;4.602;2023-04-03T04:38:43;4.00;;;1.52;;
41635;SDS011;27623;51.966;4.602;2023-04-03T04:41:08;5.78;;;1.60;;
41635;SDS011;27623;51.966;4.602;2023-04-03T04:43:34;5.38;;;1.67;;
41635;SDS011;27623;51.966;4.602;2023-04-03T04:46:07;5.30;;;1.67;;
41635;SDS011;27623;51.966;4.602;2023-04-03T04:48:34;4.85;;;1.52;;
41635;SDS011;27623;51.966;4.602;2023-04-03T04:51:01;5.15;;;1.77;;
41635;SDS011;27623;51.966;4.602;2023-04-03T04:53:26;5.38;;;1.70;;
41635;SDS011;27623;51.966;4.602;2023-04-03T04:55:54;6.18;;;1.55;;
41635;SDS011;27623;51.966;4.602;2023-04-03T04:58:19;3.65;;;1.40;;
41635;SDS011;27623;51.966;4.602;2023-04-03T05:00:45;5.30;;;2.17;;
41635;SDS011;27623;51.966;4.602;2023-04-03T05:03:11;5.40;;;1.75;;
41635;SDS011;27623;51.966;4.602;2023-04-03T05:05:36;5.40;;;1.88;;
41635;SDS011;27623;51.966;4.602;2023-04-03T05:08:02;3.65;;;1.80;;
41635;SDS011;27623;51.966;4.602;2023-04-03T05:10:28;5.75;;;2.42;;
41635;SDS011;27623;51.966;4.602;2023-04-03T05:12:54;5.72;;;2.20;;
41635;SDS011;27623;51.966;4.602;2023-04-03T05:15:19;5.13;;;2.28;;
41635;SDS011;27623;51.966;4.602;2023-04-03T05:17:45;7.20;;;2.60;;
41635;SDS011;27623;51.966;4.602;2023-04-03T05:20:11;3.92;;;1.75;;
41635;SDS011;27623;51.966;4.602;2023-04-03T05:22:37;3.30;;;1.75;;
41635;SDS011;27623;51.966;4.602;2023-04-03T05:25:05;3.67;;;1.50;;
41635;SDS011;27623;51.966;4.602;2023-04-03T05:27:31;4.93;;;1.77;;
41635;SDS011;27623;51.966;4.602;2023-04-03T05:29:58;4.82;;;1.60;;
41635;SDS011;27623;51.966;4.602;2023-04-03T05:32:25;6.00;;;2.05;;
41635;SDS011;27623;51.966;4.602;2023-04-03T05:34:54;4.80;;;2.00;;
41635;SDS011;27623;51.966;4.602;2023-04-03T05:37:19;4.15;;;1.88;;
41635;SDS011;27623;51.966;4.602;2023-04-03T05:39:45;4.63;;;1.48;;
41635;SDS011;27623;51.966;4.602;2023-04-03T05:42:10;3.83;;;1.65;;
41635;SDS011;27623;51.966;4.602;2023-04-03T05:44:36;5.20;;;1.77;;
41635;SDS011;27623;51.966;4.602;2023-04-03T05:47:03;4.53;;;1.55;;
41635;SDS011;27623;51.966;4.602;2023-04-03T05:49:28;5.72;;;1.52;;
41635;SDS011;27623;51.966;4.602;2023-04-03T05:51:54;3.67;;;1.50;;
41635;SDS011;27623;51.966;4.602;2023-04-03T05:54:23;4.28;;;1.75;;
41635;SDS011;27623;51.966;4.602;2023-04-03T05:56:51;5.22;;;2.13;;
41635;SDS011;27623;51.966;4.602;2023-04-03T05:59:17;5.55;;;2.03;;
41635;SDS011;27623;51.966;4.602;2023-04-03T06:01:43;5.15;;;2.17;;
41635;SDS011;27623;51.966;4.602;2023-04-03T06:04:09;6.10;;;2.08;;
41635;SDS011;27623;51.966;4.602;2023-04-03T06:06:54;6.07;;;1.65;;
41635;SDS011;27623;51.966;4.602;2023-04-03T06:09:23;3.70;;;1.35;;
41635;SDS011;27623;51.966;4.602;2023-04-03T06:11:50;4.07;;;1.73;;
41635;SDS011;27623;51.966;4.602;2023-04-03T06:14:16;4.20;;;1.67;;
41635;SDS011;27623;51.966;4.602;2023-04-03T06:16:42;5.22;;;1.60;;
41635;SDS011;27623;51.966;4.602;2023-04-03T06:19:08;7.53;;;1.83;;
41635;SDS011;27623;51.966;4.602;2023-04-03T06:21:35;3.20;;;1.40;;
41635;SDS011;27623;51.966;4.602;2023-04-03T06:24:00;9.68;;;2.42;;
41635;SDS011;27623;51.966;4.602;2023-04-03T06:26:27;6.43;;;1.50;;
41635;SDS011;27623;51.966;4.602;2023-04-03T06:28:55;6.70;;;1.70;;
41635;SDS011;27623;51.966;4.602;2023-04-03T06:31:20;5.60;;;2.15;;
41635;SDS011;27623;51.966;4.602;2023-04-03T06:33:47;4.80;;;1.52;;
41635;SDS011;27623;51.966;4.602;2023-04-03T06:36:12;4.28;;;2.22;;
41635;SDS011;27623;51.966;4.602;2023-04-03T06:38:38;4.25;;;1.70;;
41635;SDS011;27623;51.966;4.602;2023-04-03T06:41:04;5.43;;;1.85;;
41635;SDS011;27623;51.966;4.602;2023-04-03T06:43:29;4.60;;;1.80;;
41635;SDS011;27623;51.966;4.602;2023-04-03T06:45:57;6.03;;;1.77;;
41635;SDS011;27623;51.966;4.602;2023-04-03T06:48:22;2.67;;;1.50;;
41635;SDS011;27623;51.966;4.602;2023-04-03T06:50:48;5.25;;;2.08;;
41635;SDS011;27623;51.966;4.602;2023-04-03T06:53:13;7.40;;;2.08;;
41635;SDS011;27623;51.966;4.602;2023-04-03T06:55:39;6.70;;;1.80;;
41635;SDS011;27623;51.966;4.602;2023-04-03T06:58:06;3.83;;;1.33;;
41635;SDS011;27623;51.966;4.602;2023-04-03T07:00:32;4.20;;;1.80;;
41635;SDS011;27623;51.966;4.602;2023-04-03T07:02:58;4.05;;;1.95;;
41635;SDS011;27623;51.966;4.602;2023-04-03T07:05:24;5.72;;;2.05;;
41635;SDS011;27623;51.966;4.602;2023-04-03T07:07:49;4.43;;;1.58;;
41635;SDS011;27623;51.966;4.602;2023-04-03T07:10:18;5.60;;;1.77;;
41635;SDS011;27623;51.966;4.602;2023-04-03T07:12:43;4.00;;;1.60;;
41635;SDS011;27623;51.966;4.602;2023-04-03T07:15:09;6.60;;;1.63;;
41635;SDS011;27623;51.966;4.602;2023-04-03T07:17:37;3.35;;;2.25;;
41635;SDS011;27623;51.966;4.602;2023-04-03T07:20:03;5.68;;;1.67;;
41635;SDS011;27623;51.966;4.602;2023-04-03T07:22:29;7.20;;;1.70;;
41635;SDS011;27623;51.966;4.602;2023-04-03T07:24:55;4.25;;;1.98;;
41635;SDS011;27623;51.966;4.602;2023-04-03T07:27:21;3.65;;;1.50;;
41635;SDS011;27623;51.966;4.602;2023-04-03T07:29:46;5.47;;;1.60;;
41635;SDS011;27623;51.966;4.602;2023-04-03T07:32:13;5.03;;;1.48;;
41635;SDS011;27623;51.966;4.602;2023-04-03T07:34:40;6.95;;;1.70;;
41635;SDS011;27623;51.966;4.602;2023-04-03T07:37:05;6.03;;;1.70;;
41635;SDS011;27623;51.966;4.602;2023-04-03T07:39:31;6.07;;;1.88;;
41635;SDS011;27623;51.966;4.602;2023-04-03T07:41:57;11.95;;;2.15;;
41635;SDS011;27623;51.966;4.602;2023-04-03T07:44:22;5.57;;;1.60;;
41635;SDS011;27623;51.966;4.602;2023-04-03T07:46:49;4.25;;;1.50;;
41635;SDS011;27623;51.966;4.602;2023-04-03T07:49:15;4.53;;;1.50;;
41635;SDS011;27623;51.966;4.602;2023-04-03T07:51:45;4.30;;;1.75;;
41635;SDS011;27623;51.966;4.602;2023-04-03T07:54:10;4.13;;;1.92;;
41635;SDS011;27623;51.966;4.602;2023-04-03T07:56:36;6.88;;;1.73;;
41635;SDS011;27623;51.966;4.602;2023-04-03T07:59:01;5.85;;;1.60;;
41635;SDS011;27623;51.966;4.602;2023-04-03T08:01:27;5.15;;;1.50;;
41635;SDS011;27623;51.966;4.602;2023-04-03T08:03:53;6.05;;;1.63;;
41635;SDS011;27623;51.966;4.602;2023-04-03T08:06:18;7.55;;;1.50;;
41635;SDS011;27623;51.966;4.602;2023-04-03T08:08:43;7.45;;;1.65;;
41635;SDS011;27623;51.966;4.602;2023-04-03T08:11:09;5.30;;;1.42;;
41635;SDS011;27623;51.966;4.602;2023-04-03T08:13:35;4.93;;;1.60;;
41635;SDS011;27623;51.966;4.602;2023-04-03T08:16:22;5.85;;;1.45;;
41635;SDS011;27623;51.966;4.602;2023-04-03T08:18:51;5.43;;;1.58;;
41635;SDS011;27623;51.966;4.602;2023-04-03T08:21:17;6.72;;;2.22;;
41635;SDS011;27623;51.966;4.602;2023-04-03T08:23:42;6.47;;;1.92;;
41635;SDS011;27623;51.966;4.602;2023-04-03T08:26:12;4.28;;;1.92;;
41635;SDS011;27623;51.966;4.602;2023-04-03T08:28:39;7.85;;;1.70;;
41635;SDS011;27623;51.966;4.602;2023-04-03T08:31:06;2.95;;;1.60;;
41635;SDS011;27623;51.966;4.602;2023-04-03T08:33:33;3.60;;;1.30;;
41635;SDS011;27623;51.966;4.602;2023-04-03T08:36:01;5.35;;;1.60;;
41635;SDS011;27623;51.966;4.602;2023-04-03T08:38:28;3.30;;;1.17;;
41635;SDS011;27623;51.966;4.602;2023-04-03T08:49:18;6.88;;;1.75;;
41635;SDS011;27623;51.966;4.602;2023-04-03T08:51:57;4.32;;;1.35;;
41635;SDS011;27623;51.966;4.602;2023-04-03T08:57:03;7.93;;;1.50;;
41635;SDS011;27623;51.966;4.602;2023-04-03T08:59:33;3.92;;;1.45;;
41635;SDS011;27623;51.966;4.602;2023-04-03T09:02:00;5.05;;;1.80;;
41635;SDS011;27623;51.966;4.602;2023-04-03T09:04:31;3.97;;;1.77;;
41635;SDS011;27623;51.966;4.602;2023-04-03T09:07:07;8.02;;;1.48;;
41635;SDS011;27623;51.966;4.602;2023-04-03T09:09:39;3.38;;;1.20;;
41635;SDS011;27623;51.966;4.602;2023-04-03T09:12:12;4.00;;;1.67;;
41635;SDS011;27623;51.966;4.602;2023-04-03T09:14:57;4.97;;;1.15;;
41635;SDS011;27623;51.966;4.602;2023-04-03T09:23:14;2.83;;;1.10;;
41635;SDS011;27623;51.966;4.602;2023-04-03T09:26:01;4.50;;;1.20;;
41635;SDS011;27623;51.966;4.602;2023-04-03T09:28:35;3.13;;;0.90;;
41635;SDS011;27623;51.966;4.602;2023-04-03T09:31:23;3.45;;;1.30;;
41635;SDS011;27623;51.966;4.602;2023-04-03T09:33:53;4.43;;;1.33;;
41635;SDS011;27623;51.966;4.602;2023-04-03T09:36:38;3.65;;;0.93;;
41635;SDS011;27623;51.966;4.602;2023-04-03T09:39:15;3.25;;;0.90;;
41635;SDS011;27623;51.966;4.602;2023-04-03T09:44:32;8.40;;;0.90;;
41635;SDS011;27623;51.966;4.602;2023-04-03T09:47:00;2.92;;;0.80;;
41635;SDS011;27623;51.966;4.602;2023-04-03T09:49:43;4.60;;;1.00;;
41635;SDS011;27623;51.966;4.602;2023-04-03T09:52:19;3.13;;;0.70;;
41635;SDS011;27623;51.966;4.602;2023-04-03T09:54:50;7.28;;;0.85;;
41635;SDS011;27623;51.966;4.602;2023-04-03T09:57:16;3.13;;;0.68;;
41635;SDS011;27623;51.966;4.602;2023-04-03T10:00:00;2.15;;;0.85;;
41635;SDS011;27623;51.966;4.602;2023-04-03T10:02:39;3.95;;;1.02;;
41635;SDS011;27623;51.966;4.602;2023-04-03T10:05:25;3.97;;;0.95;;
41635;SDS011;27623;51.966;4.602;2023-04-03T10:08:10;2.42;;;0.70;;
41635;SDS011;27623;51.966;4.602;2023-04-03T10:10:42;3.28;;;0.75;;
41635;SDS011;27623;51.966;4.602;2023-04-03T10:13:11;2.13;;;0.60;;
41635;SDS011;27623;51.966;4.602;2023-04-03T10:15:43;2.05;;;0.70;;
41635;SDS011;27623;51.966;4.602;2023-04-03T10:23:56;3.22;;;0.60;;
41635;SDS011;27623;51.966;4.602;2023-04-03T10:29:36;3.60;;;1.00;;
41635;SDS011;27623;51.966;4.602;2023-04-03T10:34:37;1.48;;;0.60;;
41635;SDS011;27623;51.966;4.602;2023-04-03T10:45:29;1.58;;;0.50;;
41635;SDS011;27623;51.966;4.602;2023-04-03T10:50:52;3.10;;;0.77;;
41635;SDS011;27623;51.966;4.602;2023-04-03T10:56:01;2.30;;;0.70;;
41635;SDS011;27623;51.966;4.602;2023-04-03T10:58:36;2.47;;;0.65;;
41635;SDS011;27623;51.966;4.602;2023-04-03T11:01:27;1.73;;;0.50;;
41635;SDS011;27623;51.966;4.602;2023-04-03T11:04:05;1.27;;;0.63;;
41635;SDS011;27623;51.966;4.602;2023-04-03T11:06:32;1.25;;;0.50;;
41635;SDS011;27623;51.966;4.602;2023-04-03T11:09:19;1.77;;;0.60;;
41635;SDS011;27623;51.966;4.602;2023-04-03T11:11:50;1.98;;;0.93;;
41635;SDS011;27623;51.966;4.602;2023-04-03T11:22:43;1.33;;;0.38;;
41635;SDS011;27623;51.966;4.602;2023-04-03T11:25:18;1.70;;;0.80;;
41635;SDS011;27623;51.966;4.602;2023-04-03T11:27:54;2.15;;;0.77;;
41635;SDS011;27623;51.966;4.602;2023-04-03T11:30:37;2.45;;;0.40;;
41635;SDS011;27623;51.966;4.602;2023-04-03T11:36:18;1.90;;;0.70;;
41635;SDS011;27623;51.966;4.602;2023-04-03T11:38:47;1.60;;;0.43;;
41635;SDS011;27623;51.966;4.602;2023-04-03T11:41:17;2.28;;;0.40;;
41635;SDS011;27623;51.966;4.602;2023-04-03T11:46:51;0.98;;;0.40;;
41635;SDS011;27623;51.966;4.602;2023-04-03T12:13:40;1.05;;;0.40;;
41635;SDS011;27623;51.966;4.602;2023-04-03T12:16:07;2.10;;;0.40;;
41635;SDS011;27623;51.966;4.602;2023-04-03T12:21:22;1.65;;;0.60;;
41635;SDS011;27623;51.966;4.602;2023-04-03T12:29:17;1.45;;;0.52;;
41635;SDS011;27623;51.966;4.602;2023-04-03T12:45:30;3.50;;;0.70;;
41635;SDS011;27623;51.966;4.602;2023-04-03T12:48:24;3.55;;;0.60;;
41635;SDS011;27623;51.966;4.602;2023-04-03T12:50:52;2.30;;;0.70;;
41635;SDS011;27623;51.966;4.602;2023-04-03T12:53:21;1.35;;;0.43;;
41635;SDS011;27623;51.966;4.602;2023-04-03T12:55:53;2.22;;;0.70;;
41635;SDS011;27623;51.966;4.602;2023-04-03T12:58:23;3.65;;;0.60;;
41635;SDS011;27623;51.966;4.602;2023-04-03T13:01:38;1.70;;;0.50;;
41635;SDS011;27623;51.966;4.602;2023-04-03T13:03:57;1.17;;;0.73;;
41635;SDS011;27623;51.966;4.602;2023-04-03T13:06:24;4.63;;;0.80;;
41635;SDS011;27623;51.966;4.602;2023-04-03T13:08:58;2.28;;;0.60;;
41635;SDS011;27623;51.966;4.602;2023-04-03T13:11:26;3.53;;;0.70;;
41635;SDS011;27623;51.966;4.602;2023-04-03T13:16:24;3.33;;;0.80;;
41635;SDS011;27623;51.966;4.602;2023-04-03T13:18:51;2.00;;;0.47;;
41635;SDS011;27623;51.966;4.602;2023-04-03T13:21:22;2.42;;;0.82;;
41635;SDS011;27623;51.966;4.602;2023-04-03T13:23:58;7.22;;;0.90;;
41635;SDS011;27623;51.966;4.602;2023-04-03T13:26:27;5.30;;;1.55;;
41635;SDS011;27623;51.966;4.602;2023-04-03T13:29:00;2.50;;;0.80;;
41635;SDS011;27623;51.966;4.602;2023-04-03T13:31:32;3.92;;;1.88;;
41635;SDS011;27623;51.966;4.602;2023-04-03T13:41:40;2.03;;;0.70;;
41635;SDS011;27623;51.966;4.602;2023-04-03T13:49:36;3.03;;;0.85;;
41635;SDS011;27623;51.966;4.602;2023-04-03T14:00:37;1.23;;;0.60;;
41635;SDS011;27623;51.966;4.602;2023-04-03T14:03:13;5.43;;;0.88;;
41635;SDS011;27623;51.966;4.602;2023-04-03T14:05:45;2.17;;;0.68;;
41635;SDS011;27623;51.966;4.602;2023-04-03T14:08:10;4.93;;;1.20;;
41635;SDS011;27623;51.966;4.602;2023-04-03T14:10:36;4.13;;;0.90;;
41635;SDS011;27623;51.966;4.602;2023-04-03T14:13:02;1.70;;;0.75;;
41635;SDS011;27623;51.966;4.602;2023-04-03T14:15:29;3.03;;;0.80;;
41635;SDS011;27623;51.966;4.602;2023-04-03T14:17:56;3.50;;;0.88;;
41635;SDS011;27623;51.966;4.602;2023-04-03T14:20:23;2.33;;;0.90;;
41635;SDS011;27623;51.966;4.602;2023-04-03T14:22:51;3.17;;;1.00;;
41635;SDS011;27623;51.966;4.602;2023-04-03T14:25:21;3.58;;;0.90;;
41635;SDS011;27623;51.966;4.602;2023-04-03T14:27:49;2.53;;;0.65;;
41635;SDS011;27623;51.966;4.602;2023-04-03T14:30:27;2.90;;;0.85;;
41635;SDS011;27623;51.966;4.602;2023-04-03T14:32:54;1.83;;;0.70;;
41635;SDS011;27623;51.966;4.602;2023-04-03T14:35:21;2.75;;;0.85;;
41635;SDS011;27623;51.966;4.602;2023-04-03T14:37:47;2.15;;;0.70;;
41635;SDS011;27623;51.966;4.602;2023-04-03T14:40:18;3.13;;;0.80;;
41635;SDS011;27623;51.966;4.602;2023-04-03T14:42:46;3.63;;;0.75;;
41635;SDS011;27623;51.966;4.602;2023-04-03T14:45:13;3.40;;;0.68;;
41635;SDS011;27623;51.966;4.602;2023-04-03T14:47:50;2.30;;;0.73;;
41635;SDS011;27623;51.966;4.602;2023-04-03T14:50:22;2.50;;;0.93;;
41635;SDS011;27623;51.966;4.602;2023-04-03T14:52:50;2.08;;;0.80;;
41635;SDS011;27623;51.966;4.602;2023-04-03T14:55:20;1.55;;;0.68;;
41635;SDS011;27623;51.966;4.602;2023-04-03T14:57:46;2.30;;;0.77;;
41635;SDS011;27623;51.966;4.602;2023-04-03T15:00:16;1.70;;;0.90;;
41635;SDS011;27623;51.966;4.602;2023-04-03T15:02:44;2.35;;;1.27;;
41635;SDS011;27623;51.966;4.602;2023-04-03T15:05:10;3.40;;;1.65;;
41635;SDS011;27623;51.966;4.602;2023-04-03T15:07:37;1.75;;;0.68;;
41635;SDS011;27623;51.966;4.602;2023-04-03T15:12:44;2.08;;;0.70;;
41635;SDS011;27623;51.966;4.602;2023-04-03T15:15:10;2.67;;;0.90;;
41635;SDS011;27623;51.966;4.602;2023-04-03T15:17:36;2.58;;;0.80;;
41635;SDS011;27623;51.966;4.602;2023-04-03T15:20:02;3.35;;;0.90;;
41635;SDS011;27623;51.966;4.602;2023-04-03T15:22:28;4.03;;;1.20;;
41635;SDS011;27623;51.966;4.602;2023-04-03T15:24:54;2.70;;;0.73;;
41635;SDS011;27623;51.966;4.602;2023-04-03T15:27:20;3.63;;;1.10;;
41635;SDS011;27623;51.966;4.602;2023-04-03T15:29:45;2.90;;;0.88;;
41635;SDS011;27623;51.966;4.602;2023-04-03T15:32:11;3.17;;;0.98;;
41635;SDS011;27623;51.966;4.602;2023-04-03T15:34:37;4.25;;;1.10;;
41635;SDS011;27623;51.966;4.602;2023-04-03T15:37:04;3.60;;;1.00;;
41635;SDS011;27623;51.966;4.602;2023-04-03T15:39:30;2.40;;;0.90;;
41635;SDS011;27623;51.966;4.602;2023-04-03T15:41:55;3.42;;;1.10;;
41635;SDS011;27623;51.966;4.602;2023-04-03T15:44:21;3.42;;;0.88;;
41635;SDS011;27623;51.966;4.602;2023-04-03T15:46:47;2.88;;;1.00;;
41635;SDS011;27623;51.966;4.602;2023-04-03T15:49:16;2.88;;;1.10;;
41635;SDS011;27623;51.966;4.602;2023-04-03T15:51:42;3.85;;;0.90;;
41635;SDS011;27623;51.966;4.602;2023-04-03T15:54:10;7.63;;;1.52;;
41635;SDS011;27623;51.966;4.602;2023-04-03T15:56:38;2.78;;;1.00;;
41635;SDS011;27623;51.966;4.602;2023-04-03T15:59:03;5.28;;;1.13;;
41635;SDS011;27623;51.966;4.602;2023-04-03T16:01:29;2.72;;;0.77;;
41635;SDS011;27623;51.966;4.602;2023-04-03T16:03:55;3.30;;;1.10;;
41635;SDS011;27623;51.966;4.602;2023-04-03T16:06:20;1.48;;;0.85;;
41635;SDS011;27623;51.966;4.602;2023-04-03T16:08:46;4.30;;;1.27;;
41635;SDS011;27623;51.966;4.602;2023-04-03T16:11:13;2.78;;;0.95;;
41635;SDS011;27623;51.966;4.602;2023-04-03T16:13:39;2.97;;;1.20;;
41635;SDS011;27623;51.966;4.602;2023-04-03T16:16:05;3.88;;;0.90;;
41635;SDS011;27623;51.966;4.602;2023-04-03T16:18:31;2.15;;;0.93;;
41635;SDS011;27623;51.966;4.602;2023-04-03T16:20:59;3.83;;;0.90;;
41635;SDS011;27623;51.966;4.602;2023-04-03T16:23:24;2.85;;;0.82;;
41635;SDS011;27623;51.966;4.602;2023-04-03T16:25:50;3.20;;;0.98;;
41635;SDS011;27623;51.966;4.602;2023-04-03T16:28:16;3.47;;;1.25;;
41635;SDS011;27623;51.966;4.602;2023-04-03T16:30:42;4.68;;;1.10;;
41635;SDS011;27623;51.966;4.602;2023-04-03T16:33:09;2.65;;;1.00;;
41635;SDS011;27623;51.966;4.602;2023-04-03T16:35:36;3.08;;;0.98;;
41635;SDS011;27623;51.966;4.602;2023-04-03T16:38:01;4.43;;;1.10;;
41635;SDS011;27623;51.966;4.602;2023-04-03T16:40:27;2.88;;;0.82;;
41635;SDS011;27623;51.966;4.602;2023-04-03T16:42:52;5.03;;;1.08;;
41635;SDS011;27623;51.966;4.602;2023-04-03T16:45:18;5.40;;;1.10;;
41635;SDS011;27623;51.966;4.602;2023-04-03T16:47:43;3.40;;;1.10;;
41635;SDS011;27623;51.966;4.602;2023-04-03T16:50:09;3.85;;;0.90;;
41635;SDS011;27623;51.966;4.602;2023-04-03T16:52:37;2.42;;;0.88;;
41635;SDS011;27623;51.966;4.602;2023-04-03T16:55:02;2.92;;;1.20;;
41635;SDS011;27623;51.966;4.602;2023-04-03T16:57:28;3.50;;;0.98;;
41635;SDS011;27623;51.966;4.602;2023-04-03T16:59:53;2.13;;;1.10;;
41635;SDS011;27623;51.966;4.602;2023-04-03T17:02:21;3.50;;;1.90;;
41635;SDS011;27623;51.966;4.602;2023-04-03T17:04:49;4.72;;;1.33;;
41635;SDS011;27623;51.966;4.602;2023-04-03T17:07:16;5.75;;;0.85;;
41635;SDS011;27623;51.966;4.602;2023-04-03T17:09:44;3.42;;;1.20;;
41635;SDS011;27623;51.966;4.602;2023-04-03T17:12:10;7.25;;;1.50;;